sensor_id;sensor_type;location;lat;lon;timestamp;pressure;altitude;pressure_sealevel;temperature;humidity
50105;BME280;47690;39.202;-77.198;2023-02-10T00:01:13;99590.28;;;48.64;8.02
50105;BME280;47690;39.202;-77.198;2023-02-10T00:04:20;99580.59;;;48.33;8.08
50105;BME280;47690;39.202;-77.198;2023-02-10T00:07:30;99589.16;;;48.46;7.92
50105;BME280;47690;39.202;-77.198;2023-02-10T00:11:23;99579.78;;;48.71;8.14
50105;BME280;47690;39.202;-77.198;2023-02-10T00:14:39;99572.13;;;48.54;7.97
50105;BME280;47690;39.202;-77.198;2023-02-10T00:17:36;99571.06;;;48.31;8.27
50105;BME280;47690;39.202;-77.198;2023-02-10T00:20:43;99567.72;;;48.34;7.95
50105;BME280;47690;39.202;-77.198;2023-02-10T00:23:52;99563.25;;;48.43;7.86
50105;BME280;47690;39.202;-77.198;2023-02-10T00:27:35;99559.88;;;48.90;7.84
50105;BME280;47690;39.202;-77.198;2023-02-10T00:30:40;99570.22;;;48.54;8.23
50105;BME280;47690;39.202;-77.198;2023-02-10T00:34:03;99581.88;;;48.60;8.34
50105;BME280;47690;39.202;-77.198;2023-02-10T00:37:03;99568.09;;;48.51;7.94
50105;BME280;47690;39.202;-77.198;2023-02-10T00:40:20;99568.13;;;48.46;8.35
50105;BME280;47690;39.202;-77.198;2023-02-10T00:43:20;99574.38;;;47.14;8.89
50105;BME280;47690;39.202;-77.198;2023-02-10T00:46:21;99573.50;;;46.84;9.45
50105;BME280;47690;39.202;-77.198;2023-02-10T00:49:35;99568.56;;;46.86;8.94
50105;BME280;47690;39.202;-77.198;2023-02-10T00:53:03;99565.03;;;47.26;9.29
50105;BME280;47690;39.202;-77.198;2023-02-10T00:56:04;99560.25;;;47.12;8.95
50105;BME280;47690;39.202;-77.198;2023-02-10T00:59:15;99551.47;;;47.15;9.41
50105;BME280;47690;39.202;-77.198;2023-02-10T01:02:22;99540.03;;;47.18;9.38
50105;BME280;47690;39.202;-77.198;2023-02-10T01:05:32;99541.25;;;48.73;8.37
50105;BME280;47690;39.202;-77.198;2023-02-10T01:08:36;99543.50;;;48.90;8.38
50105;BME280;47690;39.202;-77.198;2023-02-10T01:11:41;99532.09;;;49.16;7.99
50105;BME280;47690;39.202;-77.198;2023-02-10T01:14:51;99537.84;;;49.00;8.38
50105;BME280;47690;39.202;-77.198;2023-02-10T01:18:06;99533.84;;;49.12;8.50
50105;BME280;47690;39.202;-77.198;2023-02-10T01:21:15;99538.88;;;49.04;8.25
50105;BME280;47690;39.202;-77.198;2023-02-10T01:24:24;99526.91;;;49.00;8.79
50105;BME280;47690;39.202;-77.198;2023-02-10T01:33:49;99509.81;;;49.98;8.10
50105;BME280;47690;39.202;-77.198;2023-02-10T01:48:45;99507.47;;;49.49;7.69
50105;BME280;47690;39.202;-77.198;2023-02-10T02:58:18;99445.06;;;49.79;8.32
50105;BME280;47690;39.202;-77.198;2023-02-10T03:03:52;99440.22;;;49.48;8.97
50105;BME280;47690;39.202;-77.198;2023-02-10T03:06:54;99448.34;;;48.92;8.71
50105;BME280;47690;39.202;-77.198;2023-02-10T03:10:48;99441.00;;;49.77;9.14
50105;BME280;47690;39.202;-77.198;2023-02-10T03:18:48;99427.84;;;49.22;8.74
50105;BME280;47690;39.202;-77.198;2023-02-10T03:22:49;99434.84;;;49.29;9.19
50105;BME280;47690;39.202;-77.198;2023-02-10T03:27:04;99427.84;;;49.37;8.94
50105;BME280;47690;39.202;-77.198;2023-02-10T03:30:39;99431.22;;;49.33;9.17
50105;BME280;47690;39.202;-77.198;2023-02-10T03:34:37;99427.63;;;49.75;8.92
50105;BME280;47690;39.202;-77.198;2023-02-10T03:38:19;99413.97;;;49.19;8.77
50105;BME280;47690;39.202;-77.198;2023-02-10T03:42:26;99421.38;;;49.60;8.70
50105;BME280;47690;39.202;-77.198;2023-02-10T03:46:11;99410.63;;;49.64;9.01
50105;BME280;47690;39.202;-77.198;2023-02-10T04:01:25;99406.94;;;50.20;8.46
50105;BME280;47690;39.202;-77.198;2023-02-10T04:15:24;99384.22;;;49.82;8.91
50105;BME280;47690;39.202;-77.198;2023-02-10T04:20:54;99376.69;;;50.02;8.51
50105;BME280;47690;39.202;-77.198;2023-02-10T04:25:36;99391.19;;;49.66;8.87
50105;BME280;47690;39.202;-77.198;2023-02-10T04:45:17;99386.19;;;49.68;8.63
50105;BME280;47690;39.202;-77.198;2023-02-10T04:50:55;99390.97;;;49.76;8.87
50105;BME280;47690;39.202;-77.198;2023-02-10T04:56:42;99395.81;;;49.79;8.64
50105;BME280;47690;39.202;-77.198;2023-02-10T05:01:26;99381.84;;;49.67;9.36
50105;BME280;47690;39.202;-77.198;2023-02-10T05:05:24;99387.78;;;48.85;9.31
50105;BME280;47690;39.202;-77.198;2023-02-10T05:13:20;99385.34;;;48.36;9.58
50105;BME280;47690;39.202;-77.198;2023-02-10T05:18:20;99387.13;;;48.60;9.31
50105;BME280;47690;39.202;-77.198;2023-02-10T05:22:55;99383.50;;;48.64;9.04
50105;BME280;47690;39.202;-77.198;2023-02-10T05:26:05;99381.03;;;47.91;10.09
50105;BME280;47690;39.202;-77.198;2023-02-10T05:29:56;99387.97;;;48.41;9.79
50105;BME280;47690;39.202;-77.198;2023-02-10T05:33:15;99395.94;;;47.99;9.80
50105;BME280;47690;39.202;-77.198;2023-02-10T05:36:52;99384.09;;;47.90;9.91
50105;BME280;47690;39.202;-77.198;2023-02-10T05:40:52;99381.81;;;47.97;9.81
50105;BME280;47690;39.202;-77.198;2023-02-10T05:44:37;99373.84;;;48.20;9.56
50105;BME280;47690;39.202;-77.198;2023-02-10T05:53:08;99382.06;;;48.53;9.37
50105;BME280;47690;39.202;-77.198;2023-02-10T05:58:12;99385.97;;;48.80;9.26
50105;BME280;47690;39.202;-77.198;2023-02-10T06:11:56;99388.94;;;49.12;9.34
50105;BME280;47690;39.202;-77.198;2023-02-10T06:16:52;99392.09;;;49.19;8.92
50105;BME280;47690;39.202;-77.198;2023-02-10T06:21:20;99387.78;;;48.85;9.31
50105;BME280;47690;39.202;-77.198;2023-02-10T06:25:41;99397.28;;;48.21;9.56
50105;BME280;47690;39.202;-77.198;2023-02-10T06:29:02;99403.84;;;47.81;10.11
50105;BME280;47690;39.202;-77.198;2023-02-10T06:32:36;99407.38;;;47.82;10.08
50105;BME280;47690;39.202;-77.198;2023-02-10T06:41:27;99399.03;;;47.73;9.91
50105;BME280;47690;39.202;-77.198;2023-02-10T06:49:19;99396.78;;;47.80;9.71
50105;BME280;47690;39.202;-77.198;2023-02-10T06:53:10;99396.84;;;47.75;9.81
50105;BME280;47690;39.202;-77.198;2023-02-10T07:02:17;99417.91;;;48.46;9.06
50105;BME280;47690;39.202;-77.198;2023-02-10T07:11:19;99420.41;;;48.62;9.52
50105;BME280;47690;39.202;-77.198;2023-02-10T07:15:21;99411.69;;;48.93;8.88
50105;BME280;47690;39.202;-77.198;2023-02-10T07:42:20;99428.69;;;48.37;9.22
50105;BME280;47690;39.202;-77.198;2023-02-10T07:46:17;99424.34;;;48.36;9.48
50105;BME280;47690;39.202;-77.198;2023-02-10T07:56:36;99436.63;;;48.20;9.49
50105;BME280;47690;39.202;-77.198;2023-02-10T08:00:46;99436.91;;;48.18;9.17
50105;BME280;47690;39.202;-77.198;2023-02-10T08:36:53;99475.22;;;47.64;9.21
50105;BME280;47690;39.202;-77.198;2023-02-10T08:42:12;99482.03;;;47.67;9.29
50105;BME280;47690;39.202;-77.198;2023-02-10T08:47:24;99486.94;;;47.65;9.10
50105;BME280;47690;39.202;-77.198;2023-02-10T08:53:05;99496.53;;;47.62;9.14
50105;BME280;47690;39.202;-77.198;2023-02-10T09:10:52;99511.88;;;47.82;9.29
50105;BME280;47690;39.202;-77.198;2023-02-10T09:30:45;99549.94;;;46.64;9.33
50105;BME280;47690;39.202;-77.198;2023-02-10T09:35:25;99565.25;;;46.49;9.36
50105;BME280;47690;39.202;-77.198;2023-02-10T09:40:25;99581.63;;;46.39;9.44
50105;BME280;47690;39.202;-77.198;2023-02-10T09:44:59;99587.94;;;46.14;9.53
50105;BME280;47690;39.202;-77.198;2023-02-10T10:01:10;99629.38;;;46.00;10.03
50105;BME280;47690;39.202;-77.198;2023-02-10T10:16:51;99662.25;;;46.09;9.96
50105;BME280;47690;39.202;-77.198;2023-02-10T10:22:29;99685.44;;;45.86;9.60
50105;BME280;47690;39.202;-77.198;2023-02-10T10:31:24;99695.69;;;45.26;9.44
50105;BME280;47690;39.202;-77.198;2023-02-10T10:35:16;99701.88;;;45.01;8.99
50105;BME280;47690;39.202;-77.198;2023-02-10T10:38:32;99693.56;;;44.70;8.80
50105;BME280;47690;39.202;-77.198;2023-02-10T10:42:50;99702.06;;;44.84;9.49
50105;BME280;47690;39.202;-77.198;2023-02-10T10:51:32;99716.38;;;44.64;8.87
50105;BME280;47690;39.202;-77.198;2023-02-10T10:56:35;99727.06;;;44.38;9.07
50105;BME280;47690;39.202;-77.198;2023-02-10T11:00:23;99731.69;;;44.04;8.80
50105;BME280;47690;39.202;-77.198;2023-02-10T11:04:23;99739.13;;;43.82;8.80
50105;BME280;47690;39.202;-77.198;2023-02-10T11:10:20;99762.09;;;44.39;8.30
50105;BME280;47690;39.202;-77.198;2023-02-10T11:15:37;99792.97;;;43.73;8.63
50105;BME280;47690;39.202;-77.198;2023-02-10T11:19:03;99795.97;;;43.49;8.55
50105;BME280;47690;39.202;-77.198;2023-02-10T11:22:36;99818.38;;;42.82;8.83
50105;BME280;47690;39.202;-77.198;2023-02-10T11:25:41;99829.44;;;42.29;8.59
50105;BME280;47690;39.202;-77.198;2023-02-10T11:34:48;99840.88;;;43.22;8.01
50105;BME280;47690;39.202;-77.198;2023-02-10T11:38:30;99861.41;;;43.18;8.28
50105;BME280;47690;39.202;-77.198;2023-02-10T11:42:51;99866.19;;;43.33;8.00
50105;BME280;47690;39.202;-77.198;2023-02-10T11:46:26;99869.09;;;43.04;8.03
50105;BME280;47690;39.202;-77.198;2023-02-10T11:49:47;99892.34;;;42.37;8.08
50105;BME280;47690;39.202;-77.198;2023-02-10T11:58:11;99918.34;;;42.38;8.04
50105;BME280;47690;39.202;-77.198;2023-02-10T12:11:15;99933.41;;;42.04;7.93
50105;BME280;47690;39.202;-77.198;2023-02-10T12:19:21;99947.50;;;41.42;7.82
50105;BME280;47690;39.202;-77.198;2023-02-10T12:23:43;99957.97;;;41.26;8.13
50105;BME280;47690;39.202;-77.198;2023-02-10T12:36:04;99985.34;;;40.56;7.96
50105;BME280;47690;39.202;-77.198;2023-02-10T12:47:20;100032.50;;;39.79;8.47
50105;BME280;47690;39.202;-77.198;2023-02-10T12:51:11;100036.66;;;40.19;8.21
50105;BME280;47690;39.202;-77.198;2023-02-10T12:55:04;100061.59;;;40.33;8.52
50105;BME280;47690;39.202;-77.198;2023-02-10T12:59:00;100055.19;;;40.53;8.22
50105;BME280;47690;39.202;-77.198;2023-02-10T13:07:11;100072.41;;;39.96;8.40
50105;BME280;47690;39.202;-77.198;2023-02-10T13:11:10;100050.97;;;40.20;8.41
50105;BME280;47690;39.202;-77.198;2023-02-10T13:14:31;100038.50;;;39.81;8.38
50105;BME280;47690;39.202;-77.198;2023-02-10T13:19:07;100038.81;;;39.92;8.64
50105;BME280;47690;39.202;-77.198;2023-02-10T13:59:48;100061.81;;;41.42;7.73
50105;BME280;47690;39.202;-77.198;2023-02-10T14:09:00;100085.84;;;40.89;7.79
50105;BME280;47690;39.202;-77.198;2023-02-10T14:23:33;100111.94;;;40.95;8.11
50105;BME280;47690;39.202;-77.198;2023-02-10T14:27:19;100126.38;;;40.52;7.99
50105;BME280;47690;39.202;-77.198;2023-02-10T14:32:20;100119.66;;;40.92;7.99
50105;BME280;47690;39.202;-77.198;2023-02-10T14:42:15;100131.97;;;40.69;7.68
50105;BME280;47690;39.202;-77.198;2023-02-10T14:45:51;100127.78;;;40.92;8.16
50105;BME280;47690;39.202;-77.198;2023-02-10T14:51:25;100131.81;;;41.32;7.51
50105;BME280;47690;39.202;-77.198;2023-02-10T15:13:49;100142.38;;;42.36;7.23
50105;BME280;47690;39.202;-77.198;2023-02-10T15:19:13;100143.06;;;42.55;7.23
50105;BME280;47690;39.202;-77.198;2023-02-10T15:25:15;100137.75;;;42.60;6.96
50105;BME280;47690;39.202;-77.198;2023-02-10T15:31:17;100143.34;;;42.17;7.00
50105;BME280;47690;39.202;-77.198;2023-02-10T15:41:34;100154.09;;;41.58;6.98
50105;BME280;47690;39.202;-77.198;2023-02-10T15:52:23;100159.31;;;41.83;7.23
50105;BME280;47690;39.202;-77.198;2023-02-10T15:57:43;100154.28;;;42.23;7.14
50105;BME280;47690;39.202;-77.198;2023-02-10T16:03:13;100149.88;;;42.57;6.69
50105;BME280;47690;39.202;-77.198;2023-02-10T16:08:27;100158.50;;;42.42;6.90
50105;BME280;47690;39.202;-77.198;2023-02-10T16:17:54;100171.78;;;43.38;6.67
50105;BME280;47690;39.202;-77.198;2023-02-10T16:22:44;100168.59;;;43.29;6.98
50105;BME280;47690;39.202;-77.198;2023-02-10T16:50:29;100169.06;;;43.38;6.40
50105;BME280;47690;39.202;-77.198;2023-02-10T16:55:30;100163.13;;;44.27;6.13
50105;BME280;47690;39.202;-77.198;2023-02-10T17:00:25;100168.38;;;44.16;6.47
50105;BME280;47690;39.202;-77.198;2023-02-10T17:05:16;100163.31;;;44.42;5.80
50105;BME280;47690;39.202;-77.198;2023-02-10T17:09:25;100148.75;;;44.98;5.62
50105;BME280;47690;39.202;-77.198;2023-02-10T17:12:44;100159.41;;;45.33;5.92
50105;BME280;47690;39.202;-77.198;2023-02-10T17:15:56;100157.31;;;44.85;5.57
50105;BME280;47690;39.202;-77.198;2023-02-10T17:19:16;100146.66;;;44.33;5.66
50105;BME280;47690;39.202;-77.198;2023-02-10T17:22:51;100151.75;;;43.56;5.75
50105;BME280;47690;39.202;-77.198;2023-02-10T17:26:01;100158.38;;;42.90;5.93
50105;BME280;47690;39.202;-77.198;2023-02-10T17:29:10;100152.88;;;42.20;6.22
50105;BME280;47690;39.202;-77.198;2023-02-10T17:32:19;100158.78;;;41.62;6.42
50105;BME280;47690;39.202;-77.198;2023-02-10T17:35:41;100155.69;;;41.35;6.29
50105;BME280;47690;39.202;-77.198;2023-02-10T17:39:15;100154.50;;;41.31;6.70
50105;BME280;47690;39.202;-77.198;2023-02-10T17:42:17;100152.13;;;41.04;7.00
50105;BME280;47690;39.202;-77.198;2023-02-10T17:45:21;100158.28;;;40.74;6.63
50105;BME280;47690;39.202;-77.198;2023-02-10T17:48:37;100154.94;;;40.60;6.96
50105;BME280;47690;39.202;-77.198;2023-02-10T17:51:47;100161.22;;;40.53;7.21
50105;BME280;47690;39.202;-77.198;2023-02-10T17:55:05;100159.22;;;40.49;6.71
50105;BME280;47690;39.202;-77.198;2023-02-10T17:59:01;100161.69;;;40.69;6.39
50105;BME280;47690;39.202;-77.198;2023-02-10T18:02:24;100156.22;;;40.38;6.84
50105;BME280;47690;39.202;-77.198;2023-02-10T18:05:52;100164.91;;;40.40;6.70
50105;BME280;47690;39.202;-77.198;2023-02-10T18:08:52;100167.16;;;40.18;6.68
50105;BME280;47690;39.202;-77.198;2023-02-10T18:11:57;100172.28;;;40.26;7.19
50105;BME280;47690;39.202;-77.198;2023-02-10T18:15:53;100150.19;;;40.74;6.74
50105;BME280;47690;39.202;-77.198;2023-02-10T18:18:49;100158.69;;;40.59;6.77
50105;BME280;47690;39.202;-77.198;2023-02-10T18:21:52;100153.06;;;40.60;7.06
50105;BME280;47690;39.202;-77.198;2023-02-10T18:24:55;100152.13;;;42.01;5.89
50105;BME280;47690;39.202;-77.198;2023-02-10T18:28:08;100144.84;;;41.04;6.71
50105;BME280;47690;39.202;-77.198;2023-02-10T18:31:12;100143.91;;;40.80;6.88
50105;BME280;47690;39.202;-77.198;2023-02-10T18:34:21;100143.75;;;40.75;6.68
50105;BME280;47690;39.202;-77.198;2023-02-10T18:37:24;100133.25;;;40.66;7.00
50105;BME280;47690;39.202;-77.198;2023-02-10T18:40:33;100149.47;;;40.48;6.80
50105;BME280;47690;39.202;-77.198;2023-02-10T18:43:56;100151.34;;;40.66;6.68
50105;BME280;47690;39.202;-77.198;2023-02-10T18:46:53;100175.63;;;40.66;7.02
50105;BME280;47690;39.202;-77.198;2023-02-10T18:49:52;100168.28;;;40.73;6.65
50105;BME280;47690;39.202;-77.198;2023-02-10T18:52:56;100164.59;;;40.67;6.44
50105;BME280;47690;39.202;-77.198;2023-02-10T18:56:24;100172.19;;;40.59;7.04
50105;BME280;47690;39.202;-77.198;2023-02-10T18:59:24;100165.56;;;40.54;6.90
50105;BME280;47690;39.202;-77.198;2023-02-10T19:02:20;100161.16;;;40.60;7.16
50105;BME280;47690;39.202;-77.198;2023-02-10T19:05:34;100166.81;;;41.81;6.07
50105;BME280;47690;39.202;-77.198;2023-02-10T19:08:42;100172.94;;;41.88;6.01
50105;BME280;47690;39.202;-77.198;2023-02-10T19:11:48;100166.50;;;41.16;6.58
50105;BME280;47690;39.202;-77.198;2023-02-10T19:14:53;100148.03;;;40.64;6.74
50105;BME280;47690;39.202;-77.198;2023-02-10T19:17:56;100146.94;;;40.53;6.59
50105;BME280;47690;39.202;-77.198;2023-02-10T19:21:01;100149.75;;;40.58;6.81
50105;BME280;47690;39.202;-77.198;2023-02-10T19:24:13;100159.19;;;40.67;6.31
50105;BME280;47690;39.202;-77.198;2023-02-10T19:27:21;100154.56;;;40.56;6.70
50105;BME280;47690;39.202;-77.198;2023-02-10T19:31:12;100152.91;;;40.74;6.19
50105;BME280;47690;39.202;-77.198;2023-02-10T19:34:09;100160.59;;;40.33;6.33
50105;BME280;47690;39.202;-77.198;2023-02-10T19:37:12;100155.31;;;40.19;6.65
50105;BME280;47690;39.202;-77.198;2023-02-10T19:40:20;100180.91;;;40.17;6.51
50105;BME280;47690;39.202;-77.198;2023-02-10T19:43:48;100171.78;;;40.36;6.67
50105;BME280;47690;39.202;-77.198;2023-02-10T19:47:16;100174.81;;;40.47;6.47
50105;BME280;47690;39.202;-77.198;2023-02-10T19:50:37;100170.16;;;40.54;6.64
50105;BME280;47690;39.202;-77.198;2023-02-10T19:54:16;100176.97;;;40.56;6.22
50105;BME280;47690;39.202;-77.198;2023-02-10T19:58:44;100177.81;;;40.76;6.40
50105;BME280;47690;39.202;-77.198;2023-02-10T20:07:20;100192.47;;;40.87;6.55
50105;BME280;47690;39.202;-77.198;2023-02-10T20:11:48;100212.28;;;40.74;6.33
50105;BME280;47690;39.202;-77.198;2023-02-10T20:15:55;100206.19;;;40.85;6.44
50105;BME280;47690;39.202;-77.198;2023-02-10T20:21:04;100206.97;;;41.04;6.28
50105;BME280;47690;39.202;-77.198;2023-02-10T20:25:01;100208.28;;;40.83;6.21
50105;BME280;47690;39.202;-77.198;2023-02-10T20:29:16;100213.81;;;40.69;6.45
50105;BME280;47690;39.202;-77.198;2023-02-10T20:33:03;100226.38;;;40.32;6.69
50105;BME280;47690;39.202;-77.198;2023-02-10T20:36:02;100235.66;;;40.17;6.47
50105;BME280;47690;39.202;-77.198;2023-02-10T20:39:09;100239.78;;;40.20;6.59
50105;BME280;47690;39.202;-77.198;2023-02-10T20:42:09;100241.25;;;40.15;6.89
50105;BME280;47690;39.202;-77.198;2023-02-10T20:45:09;100243.84;;;40.29;6.37
50105;BME280;47690;39.202;-77.198;2023-02-10T20:48:09;100243.81;;;40.10;6.43
50105;BME280;47690;39.202;-77.198;2023-02-10T20:51:15;100254.50;;;40.24;6.34
50105;BME280;47690;39.202;-77.198;2023-02-10T20:54:30;100262.47;;;40.37;6.90
50105;BME280;47690;39.202;-77.198;2023-02-10T20:57:45;100266.28;;;40.74;6.71
50105;BME280;47690;39.202;-77.198;2023-02-10T21:01:04;100274.09;;;40.38;6.13
50105;BME280;47690;39.202;-77.198;2023-02-10T21:04:13;100273.47;;;40.10;6.60
50105;BME280;47690;39.202;-77.198;2023-02-10T21:07:49;100274.56;;;40.02;6.50
50105;BME280;47690;39.202;-77.198;2023-02-10T21:11:26;100269.38;;;40.01;6.32
50105;BME280;47690;39.202;-77.198;2023-02-10T21:15:07;100282.38;;;40.11;6.60
50105;BME280;47690;39.202;-77.198;2023-02-10T21:18:47;100291.28;;;39.79;6.59
50105;BME280;47690;39.202;-77.198;2023-02-10T21:23:32;100294.88;;;40.05;6.21
50105;BME280;47690;39.202;-77.198;2023-02-10T21:27:09;100314.25;;;39.88;6.55
50105;BME280;47690;39.202;-77.198;2023-02-10T21:31:21;100313.41;;;39.88;6.60
50105;BME280;47690;39.202;-77.198;2023-02-10T21:35:21;100324.81;;;39.51;6.87
50105;BME280;47690;39.202;-77.198;2023-02-10T21:39:33;100328.09;;;39.53;6.95
50105;BME280;47690;39.202;-77.198;2023-02-10T21:43:04;100346.19;;;39.32;6.68
50105;BME280;47690;39.202;-77.198;2023-02-10T21:46:04;100345.00;;;38.88;7.17
50105;BME280;47690;39.202;-77.198;2023-02-10T21:49:10;100342.31;;;38.74;7.28
50105;BME280;47690;39.202;-77.198;2023-02-10T21:52:20;100344.44;;;39.65;6.85
50105;BME280;47690;39.202;-77.198;2023-02-10T21:55:49;100353.06;;;39.21;6.87
50105;BME280;47690;39.202;-77.198;2023-02-10T21:58:56;100353.22;;;39.33;6.76
50105;BME280;47690;39.202;-77.198;2023-02-10T22:02:04;100358.19;;;39.50;6.71
50105;BME280;47690;39.202;-77.198;2023-02-10T22:05:15;100365.00;;;39.53;6.78
50105;BME280;47690;39.202;-77.198;2023-02-10T22:08:16;100383.06;;;39.39;6.56
50105;BME280;47690;39.202;-77.198;2023-02-10T22:11:16;100390.34;;;39.25;6.89
50105;BME280;47690;39.202;-77.198;2023-02-10T22:14:24;100398.19;;;39.40;6.66
50105;BME280;47690;39.202;-77.198;2023-02-10T22:17:32;100399.88;;;38.60;7.18
50105;BME280;47690;39.202;-77.198;2023-02-10T22:20:43;100414.50;;;38.37;7.14
50105;BME280;47690;39.202;-77.198;2023-02-10T22:24:13;100413.28;;;38.39;7.21
50105;BME280;47690;39.202;-77.198;2023-02-10T22:28:31;100426.94;;;38.45;7.14
50105;BME280;47690;39.202;-77.198;2023-02-10T22:31:57;100421.72;;;38.30;7.32
50105;BME280;47690;39.202;-77.198;2023-02-10T22:35:41;100444.28;;;38.22;7.41
50105;BME280;47690;39.202;-77.198;2023-02-10T22:38:53;100439.81;;;38.01;7.36
50105;BME280;47690;39.202;-77.198;2023-02-10T22:42:21;100444.63;;;38.81;6.90
50105;BME280;47690;39.202;-77.198;2023-02-10T22:45:59;100447.31;;;38.05;7.24
50105;BME280;47690;39.202;-77.198;2023-02-10T22:49:10;100473.00;;;37.72;7.13
50105;BME280;47690;39.202;-77.198;2023-02-10T22:52:53;100471.97;;;37.74;7.25
50105;BME280;47690;39.202;-77.198;2023-02-10T22:56:14;100458.50;;;38.09;7.13
50105;BME280;47690;39.202;-77.198;2023-02-10T22:59:45;100465.09;;;38.69;6.79
50105;BME280;47690;39.202;-77.198;2023-02-10T23:03:20;100454.66;;;38.38;7.01
50105;BME280;47690;39.202;-77.198;2023-02-10T23:07:04;100465.22;;;37.56;7.53
50105;BME280;47690;39.202;-77.198;2023-02-10T23:10:39;100472.00;;;37.23;7.33
50105;BME280;47690;39.202;-77.198;2023-02-10T23:13:53;100467.28;;;38.38;7.15
50105;BME280;47690;39.202;-77.198;2023-02-10T23:17:16;100476.16;;;37.90;7.50
50105;BME280;47690;39.202;-77.198;2023-02-10T23:20:55;100486.00;;;37.18;7.77
50105;BME280;47690;39.202;-77.198;2023-02-10T23:24:19;100470.72;;;36.97;7.52
50105;BME280;47690;39.202;-77.198;2023-02-10T23:27:45;100467.28;;;38.38;6.95
50105;BME280;47690;39.202;-77.198;2023-02-10T23:30:53;100478.13;;;37.67;7.54
50105;BME280;47690;39.202;-77.198;2023-02-10T23:34:17;100474.56;;;37.95;6.93
50105;BME280;47690;39.202;-77.198;2023-02-10T23:37:20;100490.13;;;37.14;7.64
50105;BME280;47690;39.202;-77.198;2023-02-10T23:40:42;100485.78;;;37.13;7.51
50105;BME280;47690;39.202;-77.198;2023-02-10T23:43:52;100486.16;;;37.10;7.76
50105;BME280;47690;39.202;-77.198;2023-02-10T23:46:56;100495.97;;;37.03;7.58
50105;BME280;47690;39.202;-77.198;2023-02-10T23:50:07;100500.00;;;36.92;7.52
50105;BME280;47690;39.202;-77.198;2023-02-10T23:53:32;100508.63;;;36.87;7.80
50105;BME280;47690;39.202;-77.198;2023-02-10T23:56:52;100511.75;;;36.91;7.57
